Flight Track Log - Related Links

Times and Time Zones

All times are in EDT time to prevent confusion due to time zone crossing. See the VRT51 flight status page for this flight to view local times or setup timezone preferences in your user account.

Time Position Orientation Groundspeed Altitude Reporting Facility
EDT Latitude Longitude Course Direction KTS MPH feet Rate Location/Type
Thu 03:31:09 PM 31.5114 -83.5311 340° North 221 254 3,800  Level Jacksonville Center
Thu 03:32:04 PM 31.5697 -83.5558 340° North 248 285 6,300 2,814 Climbing Jacksonville Center
Thu 03:33:02 PM 31.6344 -83.5831 340° North 289 333 9,100 2,949 Climbing Jacksonville Center
Thu 03:34:02 PM 31.7114 -83.6106 343° North 289 333 12,100 3,565 Climbing Jacksonville Center
Thu 03:36:29 PM 31.9214 -83.7036 339° North 318 366 21,400 3,594 Climbing Atlanta Center
Thu 03:37:29 PM 32.0072 -83.7400 340° North 323 372 24,500 2,800 Climbing Atlanta Center
Thu 03:38:29 PM 32.0969 -83.7767 341° North 334 384 27,000 2,200 Climbing Atlanta Center
Thu 03:39:29 PM 32.1889 -83.8156 340° North 334 384 28,900 1,850 Climbing Atlanta Center
Thu 03:40:29 PM 32.2850 -83.8569 340° North 347 399 30,700 1,550 Climbing Atlanta Center
Thu 03:41:29 PM 32.3811 -83.8961 341° North 358 412 32,000 650 Climbing Atlanta Center
Thu 03:42:29 PM 32.4875 -83.9428 340° North 379 436 32,000  Level Atlanta Center
Thu 03:43:29 PM 32.5983 -83.9894 340° North 403 464 32,000  Level Atlanta Center
Thu 03:44:29 PM 32.7089 -84.0389 339° North 415 478 32,000  Level Atlanta Center
Thu 03:45:29 PM 32.8217 -84.0858 341° North 420 483 32,000  Level Atlanta Center
Thu 03:46:29 PM 32.9322 -84.1353 339° North 425 489 32,000  Level Atlanta Center
Thu 03:47:29 PM 33.0447 -84.1825 341° North 425 489 32,000  Level Atlanta Center
Thu 03:48:29 PM 33.1428 -84.2297 338° Northwest 425 489 32,000  Level Atlanta Center
Thu 03:49:29 PM 33.2556 -84.2747 342° North 430 495 32,000  Level Atlanta Center
Thu 03:50:29 PM 33.3661 -84.3222 340° North 424 488 32,000  Level Atlanta Center
Thu 03:51:29 PM 33.4808 -84.3725 340° North 424 488 32,000  Level Atlanta Center
Thu 03:52:29 PM 33.6017 -84.4253 340° North 424 488 32,000  Level Atlanta Center
Thu 03:53:29 PM 33.7081 -84.4733 339° North 431 496 32,000  Level Atlanta Center
Thu 03:54:29 PM 33.8247 -84.5214 341° North 425 489 32,000  Level Atlanta Center
Thu 03:55:29 PM 33.9392 -84.5822 336° Northwest 430 495 32,000  Level Atlanta Center
Thu 03:56:29 PM 34.0497 -84.6206 344° North 430 495 32,000  Level Atlanta Center
Thu 03:57:29 PM 34.1558 -84.6664 340° North 436 502 32,000  Level Atlanta Center
Thu 03:58:29 PM 34.2661 -84.7150 340° North 436 502 32,000  Level Atlanta Center
Thu 03:59:29 PM 34.3744 -84.7636 340° North 424 488 32,000 -900 Level Atlanta Center
Thu 04:00:29 PM 34.4869 -84.8125 340° North 424 488 30,200 -1,900 Descending Atlanta Center
Thu 04:01:29 PM 34.6097 -84.8667 340° North 423 487 28,200 -1,600 Descending Atlanta Center
Thu 04:02:29 PM 34.7219 -84.9208 338° Northwest 430 495 27,000 -1,250 Descending Atlanta Center
Thu 04:03:29 PM 34.8342 -84.9700 340° North 425 489 25,700 -1,500 Descending Atlanta Center
Thu 04:04:29 PM 34.9508 -85.0219 340° North 430 495 24,000 -1,700 Descending Atlanta Center
Thu 04:05:29 PM 35.0608 -85.0742 339° North 430 495 22,300 -1,850 Descending Atlanta Center
Thu 04:06:29 PM 35.1711 -85.1236 340° North 430 495 20,300 -2,050 Descending Atlanta Center
Thu 04:07:29 PM 35.2792 -85.1733 339° North 418 481 18,200 -2,036 Descending Atlanta Center
Thu 04:09:17 PM 35.4733 -85.2406 344° North 410 472 14,600 -2,000 Descending Memphis Center
Thu 04:10:17 PM 35.5811 -85.2747 346° North 405 466 12,600 -2,000 Descending Memphis Center
Thu 04:11:17 PM 35.6750 -85.3250 336° Northwest 384 442 10,600 -1,900 Descending Memphis Center
Thu 04:12:17 PM 35.7517 -85.3664 336° Northwest 351 404 8,800 -1,950 Descending Memphis Center
Thu 04:13:17 PM 35.8219 -85.4058 336° Northwest 304 350 6,700 -2,100 Descending Memphis Center

Login

Don't have an account? Register now (free) for customized features, flight alerts, and more!